Time;durP1;ratioP1;P1;durP2;ratioP2;P2;SDS_P1;SDS_P2;PMS_P1;PMS_P2;Temp;Humidity;BMP_temperature;BMP_pressure;BME280_temperature;BME280_humidity;BME280_pressure;Samples;Min_cycle;Max_cycle;Signal;HPM_P1;HPM_P2
2022/05/28 00:01:31;;;;;;;3.47;1.30;;;24.00;48.10;;;;;;5052635;28;20039;-77
2022/05/28 00:04:04;;;;;;;4.65;1.33;;;23.80;48.30;;;;;;5052958;28;20033;-83
2022/05/28 00:06:32;;;;;;;2.42;1.13;;;23.50;48.30;;;;;;5035635;28;20031;-73
2022/05/28 00:08:59;;;;;;;3.95;1.42;;;23.30;48.50;;;;;;5052667;28;20025;-78
2022/05/28 00:11:28;;;;;;;2.15;1.13;;;23.30;49.10;;;;;;5052941;28;20021;-77
2022/05/28 00:13:54;;;;;;;6.00;1.77;;;23.10;49.20;;;;;;5053191;28;20471;-79
2022/05/28 00:16:20;;;;;;;2.53;1.40;;;23.00;49.70;;;;;;5034758;28;20034;-85
2022/05/28 00:18:47;;;;;;;3.92;1.50;;;23.00;49.20;;;;;;5053021;28;20021;-81
2022/05/28 00:21:14;;;;;;;2.67;1.17;;;22.60;50.10;;;;;;5053373;28;20033;-80
2022/05/28 00:23:45;;;;;;;2.65;1.20;;;22.60;50.50;;;;;;5052977;28;20084;-84
2022/05/28 00:26:12;;;;;;;3.22;1.35;;;22.60;50.10;;;;;;5053025;28;20021;-79
2022/05/28 00:28:38;;;;;;;2.95;1.30;;;22.70;50.40;;;;;;5053165;28;20043;-81
2022/05/28 00:31:04;;;;;;;5.45;1.40;;;22.90;50.10;;;;;;5035489;28;20415;-81
2022/05/28 00:33:30;;;;;;;2.70;1.30;;;22.80;49.90;;;;;;5053288;28;20036;-81
2022/05/28 00:35:59;;;;;;;2.22;1.10;;;22.50;49.70;;;;;;5035417;28;20022;-78
2022/05/28 00:38:26;;;;;;;3.10;1.33;;;22.60;50.00;;;;;;5037898;28;20021;-81
2022/05/28 00:40:55;;;;;;;2.15;1.15;;;22.60;49.90;;;;;;5057991;28;20056;-76
2022/05/28 00:43:21;;;;;;;4.00;1.30;;;22.70;50.10;;;;;;5040026;28;20040;-77
2022/05/28 00:45:50;;;;;;;3.00;1.20;;;22.70;49.80;;;;;;5056412;28;20005;-77
2022/05/28 00:48:24;;;;;;;2.80;1.27;;;22.80;49.90;;;;;;5038328;28;20025;-80
2022/05/28 00:50:50;;;;;;;2.78;1.40;;;22.70;50.30;;;;;;5038590;28;20486;-78
2022/05/28 00:53:16;;;;;;;3.97;1.35;;;22.90;50.00;;;;;;5055953;28;20068;-79
2022/05/28 00:55:42;;;;;;;3.67;1.40;;;22.60;49.90;;;;;;5056650;28;20139;-82
2022/05/28 00:58:09;;;;;;;3.10;1.40;;;22.60;50.30;;;;;;5056771;28;20391;-82
2022/05/28 01:00:37;;;;;;;2.67;1.30;;;22.50;50.70;;;;;;5038994;28;20025;-83
2022/05/28 01:03:09;;;;;;;2.40;1.30;;;22.20;51.10;;;;;;5056068;28;20056;-79
2022/05/28 01:05:52;;;;;;;5.03;1.35;;;22.00;51.70;;;;;;5056253;28;20105;-81
2022/05/28 01:08:27;;;;;;;2.10;1.20;;;22.00;51.90;;;;;;5056433;28;20021;-79
2022/05/28 01:11:05;;;;;;;2.63;1.30;;;22.20;51.60;;;;;;5039024;28;20016;-82
2022/05/28 01:13:41;;;;;;;2.20;1.27;;;22.60;51.00;;;;;;5038175;28;20468;-76
2022/05/28 01:16:15;;;;;;;3.08;1.50;;;22.60;50.90;;;;;;5036924;28;20044;-81
2022/05/28 01:18:50;;;;;;;3.30;1.38;;;22.70;51.00;;;;;;5036357;28;20040;-76
2022/05/28 01:21:30;;;;;;;3.75;1.40;;;22.70;51.00;;;;;;5055249;28;20021;-77
2022/05/28 01:24:10;;;;;;;2.50;1.33;;;22.60;51.20;;;;;;5055013;28;20143;-75
2022/05/28 01:27:00;;;;;;;3.13;1.52;;;22.80;51.10;;;;;;5055196;28;20289;-81
2022/05/28 01:29:31;;;;;;;2.42;1.40;;;22.30;51.40;;;;;;5055437;28;20419;-77
2022/05/28 01:31:59;;;;;;;2.55;1.33;;;22.00;52.20;;;;;;5055324;28;20132;-77
2022/05/28 01:34:26;;;;;;;2.42;1.20;;;22.10;52.20;;;;;;5054987;28;20071;-74
2022/05/28 01:36:55;;;;;;;4.05;1.25;;;22.40;52.00;;;;;;5055768;28;20511;-78
2022/05/28 01:39:22;;;;;;;3.05;1.40;;;22.60;51.40;;;;;;5054775;28;20106;-82
2022/05/28 01:41:49;;;;;;;2.83;1.50;;;22.50;51.20;;;;;;5055056;28;20365;-81
2022/05/28 01:44:15;;;;;;;2.53;1.48;;;22.40;51.60;;;;;;5055133;28;20391;-80
2022/05/28 01:46:44;;;;;;;3.22;1.30;;;22.30;51.50;;;;;;5036857;28;20021;-77
2022/05/28 01:49:13;;;;;;;2.50;1.40;;;22.50;51.60;;;;;;5037060;28;20033;-82
2022/05/28 01:51:43;;;;;;;3.08;1.50;;;22.50;51.40;;;;;;5055361;28;20430;-84
2022/05/28 01:54:13;;;;;;;2.50;1.30;;;22.50;51.60;;;;;;5036952;28;20494;-77
2022/05/28 01:56:43;;;;;;;2.88;1.35;;;22.40;51.90;;;;;;5054917;28;20029;-76
2022/05/28 01:59:11;;;;;;;2.90;1.40;;;22.20;51.80;;;;;;5055090;28;20021;-80
2022/05/28 02:01:37;;;;;;;4.00;1.50;;;22.30;52.40;;;;;;5055084;28;20029;-80
2022/05/28 02:04:06;;;;;;;2.78;1.45;;;22.40;51.80;;;;;;5054274;28;20032;-83
2022/05/28 02:06:34;;;;;;;2.35;1.30;;;22.60;51.90;;;;;;5054718;28;20111;-77
2022/05/28 02:09:00;;;;;;;3.67;1.42;;;22.60;51.80;;;;;;5054189;28;20048;-77
2022/05/28 02:11:45;;;;;;;4.25;1.40;;;22.80;51.60;;;;;;5055007;28;20087;-77
2022/05/28 02:14:47;;;;;;;4.20;1.50;;;22.80;51.60;;;;;;5054552;28;20071;-77
2022/05/28 02:17:34;;;;;;;2.97;1.42;;;22.60;51.70;;;;;;5054604;28;20541;-79
2022/05/28 02:20:21;;;;;;;2.80;1.42;;;22.50;52.00;;;;;;5055241;28;20029;-89
2022/05/28 02:23:20;;;;;;;2.95;1.50;;;22.50;52.30;;;;;;5053955;28;20033;-80
2022/05/28 02:25:56;;;;;;;3.38;1.52;;;22.50;52.10;;;;;;5054227;28;20091;-78
2022/05/28 02:28:23;;;;;;;2.70;1.60;;;22.30;52.70;;;;;;5055249;28;20112;-76
2022/05/28 02:30:53;;;;;;;2.78;1.50;;;22.50;52.30;;;;;;5054057;28;20033;-77
2022/05/28 02:33:20;;;;;;;3.42;1.60;;;22.70;52.00;;;;;;5052911;28;20025;-77
2022/05/28 02:35:46;;;;;;;3.70;1.60;;;22.90;51.60;;;;;;5056036;28;20029;-77
2022/05/28 02:38:13;;;;;;;3.38;1.60;;;22.80;52.00;;;;;;5055371;28;20032;-80
2022/05/28 02:40:39;;;;;;;3.92;1.60;;;22.90;51.60;;;;;;5031875;28;20057;-76
2022/05/28 02:43:05;;;;;;;3.17;1.80;;;23.00;51.40;;;;;;5033948;28;20033;-77
2022/05/28 02:45:31;;;;;;;2.80;1.60;;;22.80;51.40;;;;;;5032689;28;20029;-86
2022/05/28 02:47:56;;;;;;;3.47;1.60;;;22.60;52.10;;;;;;5032410;28;20047;-76
2022/05/28 02:50:26;;;;;;;3.10;1.73;;;22.50;52.20;;;;;;5034154;28;20022;-85
2022/05/28 02:52:52;;;;;;;2.45;1.40;;;22.60;52.20;;;;;;5033034;28;20373;-76
2022/05/28 02:55:18;;;;;;;2.92;1.60;;;22.50;52.00;;;;;;5031963;28;20075;-76
2022/05/28 02:57:44;;;;;;;3.08;1.52;;;22.70;52.20;;;;;;5033873;28;20113;-79
2022/05/28 03:00:14;;;;;;;2.85;1.50;;;22.80;52.10;;;;;;5032797;28;20026;-77
2022/05/28 03:02:41;;;;;;;2.58;1.40;;;22.80;52.20;;;;;;5033588;28;20076;-76
2022/05/28 03:05:07;;;;;;;2.70;1.50;;;22.70;51.80;;;;;;5033736;28;20362;-77
2022/05/28 03:07:32;;;;;;;3.13;1.92;;;22.60;52.00;;;;;;5033505;28;20100;-83
2022/05/28 03:09:58;;;;;;;3.05;1.70;;;22.70;52.40;;;;;;5033916;28;20437;-80
2022/05/28 03:12:24;;;;;;;4.00;1.40;;;22.80;52.10;;;;;;5033520;28;20029;-79
2022/05/28 03:14:49;;;;;;;3.42;1.52;;;22.80;52.10;;;;;;5033577;28;20033;-79
2022/05/28 03:17:15;;;;;;;3.00;1.55;;;22.60;52.20;;;;;;5033334;28;20029;-75
2022/05/28 03:19:41;;;;;;;3.35;1.75;;;22.60;52.30;;;;;;5033239;28;20049;-79
2022/05/28 03:22:07;;;;;;;2.92;1.52;;;22.70;52.30;;;;;;5033151;28;20057;-76
2022/05/28 03:24:32;;;;;;;3.28;1.60;;;22.60;52.30;;;;;;5033377;28;20096;-88
2022/05/28 03:26:59;;;;;;;4.18;1.55;;;22.60;52.60;;;;;;5031947;28;20496;-75
2022/05/28 03:29:25;;;;;;;4.07;1.70;;;22.60;52.40;;;;;;5032993;28;20423;-76
2022/05/28 03:31:51;;;;;;;2.60;1.50;;;22.80;52.60;;;;;;5033513;28;20083;-76
2022/05/28 03:34:17;;;;;;;2.70;1.50;;;23.00;52.30;;;;;;5033092;28;20068;-80
2022/05/28 03:36:43;;;;;;;2.50;1.45;;;23.20;51.90;;;;;;5033358;28;20083;-75
2022/05/28 03:39:09;;;;;;;3.50;1.80;;;23.30;51.70;;;;;;5033066;28;20033;-77
2022/05/28 03:41:34;;;;;;;3.00;1.67;;;23.40;51.70;;;;;;5035189;28;20112;-76
2022/05/28 03:44:00;;;;;;;4.20;1.70;;;23.20;52.00;;;;;;5052614;28;20040;-76
2022/05/28 03:46:32;;;;;;;3.20;1.58;;;23.10;52.30;;;;;;5052575;28;20025;-77
2022/05/28 03:49:01;;;;;;;4.47;1.70;;;23.30;51.70;;;;;;5052982;28;20025;-76
2022/05/28 03:51:27;;;;;;;3.05;1.83;;;23.40;51.40;;;;;;5052683;28;20025;-74
2022/05/28 03:53:53;;;;;;;3.20;1.50;;;23.50;51.30;;;;;;5052387;28;20403;-75
2022/05/28 03:56:20;;;;;;;3.22;1.70;;;23.70;51.30;;;;;;5052210;28;20468;-75
2022/05/28 03:58:47;;;;;;;2.85;1.75;;;23.80;51.10;;;;;;5052546;28;20025;-75
2022/05/28 04:01:14;;;;;;;3.85;1.70;;;23.90;50.80;;;;;;5052037;28;20407;-76
2022/05/28 04:03:39;;;;;;;3.80;1.73;;;23.90;50.50;;;;;;5052168;28;20123;-77
2022/05/28 04:06:05;;;;;;;3.13;1.60;;;24.00;50.50;;;;;;5052261;28;20021;-75
2022/05/28 04:08:31;;;;;;;3.28;1.65;;;23.90;50.40;;;;;;5052602;28;20025;-75
2022/05/28 04:10:57;;;;;;;3.17;1.52;;;23.80;50.80;;;;;;5051682;28;20029;-76
2022/05/28 04:13:23;;;;;;;3.20;1.58;;;23.80;50.50;;;;;;5051180;28;20029;-75
2022/05/28 04:15:49;;;;;;;2.88;1.55;;;23.90;50.80;;;;;;5052246;28;20025;-75
2022/05/28 04:18:16;;;;;;;2.92;1.80;;;23.70;50.50;;;;;;5052296;28;20066;-75
2022/05/28 04:20:41;;;;;;;3.10;1.58;;;23.60;50.80;;;;;;5051804;28;20375;-75
2022/05/28 04:23:07;;;;;;;4.18;1.50;;;23.70;50.80;;;;;;5053357;28;20509;-75
2022/05/28 04:25:33;;;;;;;2.67;1.52;;;23.80;50.60;;;;;;5051890;28;20483;-76
2022/05/28 04:27:59;;;;;;;4.00;1.90;;;24.10;50.80;;;;;;5052180;28;20040;-77
2022/05/28 04:30:25;;;;;;;2.90;1.65;;;24.20;50.50;;;;;;5051899;28;20107;-75
2022/05/28 04:32:51;;;;;;;5.47;2.20;;;24.20;50.30;;;;;;5052951;28;20491;-75
2022/05/28 04:35:16;;;;;;;3.28;1.67;;;24.20;50.50;;;;;;5051468;28;20029;-75
2022/05/28 04:37:42;;;;;;;3.63;1.73;;;24.20;50.50;;;;;;5051617;28;20387;-76
2022/05/28 04:40:09;;;;;;;3.67;1.67;;;24.30;50.20;;;;;;5051469;28;20077;-77
2022/05/28 04:42:34;;;;;;;3.10;1.80;;;24.30;50.30;;;;;;5051072;28;20067;-79
2022/05/28 04:45:00;;;;;;;4.18;1.75;;;24.20;50.20;;;;;;5051702;28;20033;-75
2022/05/28 04:47:26;;;;;;;3.00;1.70;;;24.30;50.50;;;;;;5033905;28;20464;-75
2022/05/28 04:49:52;;;;;;;3.00;1.90;;;24.40;50.40;;;;;;5051235;28;20021;-75
2022/05/28 04:52:17;;;;;;;4.90;1.98;;;24.40;50.20;;;;;;5051687;28;20661;-75
2022/05/28 04:54:43;;;;;;;4.15;1.80;;;24.60;50.00;;;;;;5052209;28;20024;-76
2022/05/28 04:57:09;;;;;;;3.60;1.60;;;24.80;50.20;;;;;;5051571;28;20028;-75
2022/05/28 04:59:34;;;;;;;3.25;1.90;;;24.90;50.00;;;;;;5052000;28;20018;-80
2022/05/28 05:02:00;;;;;;;3.22;1.63;;;24.90;49.70;;;;;;5050502;28;20399;-77
2022/05/28 05:04:26;;;;;;;3.30;1.90;;;24.80;49.70;;;;;;5051511;28;20040;-75
2022/05/28 05:06:51;;;;;;;3.85;1.80;;;24.90;49.70;;;;;;5051223;28;20040;-78
2022/05/28 05:09:17;;;;;;;3.58;1.95;;;25.00;50.00;;;;;;5033999;28;20055;-78
2022/05/28 05:11:43;;;;;;;2.80;1.67;;;25.00;50.30;;;;;;5051789;28;20092;-76
2022/05/28 05:14:08;;;;;;;2.70;1.50;;;24.90;50.60;;;;;;5051953;28;20106;-77
2022/05/28 05:16:34;;;;;;;3.13;1.67;;;25.00;50.10;;;;;;5033525;28;20036;-85
2022/05/28 05:19:00;;;;;;;4.97;1.73;;;25.10;50.00;;;;;;5052173;28;20029;-78
2022/05/28 05:21:25;;;;;;;4.03;1.90;;;24.70;50.50;;;;;;5051620;28;20078;-75
2022/05/28 05:23:51;;;;;;;3.95;1.70;;;24.60;50.60;;;;;;5052746;28;20557;-77
2022/05/28 05:26:20;;;;;;;4.20;1.92;;;24.60;51.50;;;;;;5037128;28;20025;-75
2022/05/28 05:28:46;;;;;;;2.90;1.70;;;24.60;50.20;;;;;;5055137;28;20098;-76
2022/05/28 05:31:13;;;;;;;3.63;1.80;;;24.40;50.80;;;;;;5055299;28;20021;-74
2022/05/28 05:33:40;;;;;;;4.47;1.80;;;24.50;51.30;;;;;;5055729;28;20523;-88
2022/05/28 05:36:06;;;;;;;5.60;1.90;;;24.50;51.10;;;;;;5037744;28;20025;-76
2022/05/28 05:38:32;;;;;;;5.53;1.77;;;24.70;51.00;;;;;;5055498;28;20148;-76
2022/05/28 05:40:58;;;;;;;3.25;1.75;;;25.00;50.50;;;;;;5055510;28;20051;-75
2022/05/28 05:43:23;;;;;;;4.85;1.70;;;25.10;49.90;;;;;;5055452;28;20098;-78
2022/05/28 05:45:53;;;;;;;3.88;1.70;;;25.30;49.80;;;;;;5054244;28;20373;-75
2022/05/28 05:48:20;;;;;;;4.28;2.03;;;25.60;49.50;;;;;;5055508;28;20028;-77
2022/05/28 05:50:46;;;;;;;4.25;1.80;;;26.00;49.00;;;;;;5055263;28;20029;-76
2022/05/28 05:53:11;;;;;;;5.75;2.10;;;25.80;48.90;;;;;;5055079;28;20060;-77
2022/05/28 05:55:37;;;;;;;3.92;1.73;;;26.00;48.90;;;;;;5055466;28;20022;-76
2022/05/28 05:58:04;;;;;;;3.15;1.65;;;26.00;48.80;;;;;;5055452;28;20056;-75
2022/05/28 06:00:29;;;;;;;7.05;1.90;;;25.80;48.80;;;;;;5054847;28;20468;-74
2022/05/28 06:02:55;;;;;;;3.55;1.67;;;25.90;49.00;;;;;;5056123;28;20037;-76
2022/05/28 06:05:21;;;;;;;3.38;1.80;;;25.90;49.50;;;;;;5075119;28;20020;-73
2022/05/28 06:07:47;;;;;;;3.92;1.80;;;26.00;48.90;;;;;;5074639;28;20364;-72
2022/05/28 06:10:13;;;;;;;3.13;1.80;;;26.00;49.30;;;;;;5057569;28;20472;-73
2022/05/28 06:12:39;;;;;;;3.60;1.83;;;25.90;49.20;;;;;;5074505;28;20024;-73
2022/05/28 06:15:05;;;;;;;3.78;1.83;;;26.00;49.00;;;;;;5074767;28;20021;-73
2022/05/28 06:17:34;;;;;;;3.95;1.90;;;26.20;49.20;;;;;;5074802;28;20020;-73
2022/05/28 06:20:00;;;;;;;4.78;2.03;;;26.20;48.90;;;;;;5074795;28;20036;-76
2022/05/28 06:22:26;;;;;;;4.45;1.95;;;26.20;49.70;;;;;;5056391;28;20029;-74
2022/05/28 06:24:52;;;;;;;3.08;1.80;;;26.30;49.20;;;;;;5074947;28;20025;-76
2022/05/28 06:27:17;;;;;;;3.53;2.03;;;26.10;49.50;;;;;;5074784;28;20387;-75
2022/05/28 06:29:43;;;;;;;2.80;1.60;;;26.10;49.70;;;;;;5074676;28;20434;-73
2022/05/28 06:32:08;;;;;;;3.65;1.70;;;26.20;49.40;;;;;;5075163;28;20058;-80
2022/05/28 06:34:34;;;;;;;5.13;2.00;;;26.20;48.90;;;;;;5073851;28;20500;-75
2022/05/28 06:37:00;;;;;;;3.50;1.88;;;26.40;47.70;;;;;;5074163;28;20025;-76
2022/05/28 06:39:26;;;;;;;4.80;1.90;;;26.80;47.80;;;;;;5074143;28;20048;-74
2022/05/28 06:41:51;;;;;;;4.50;1.92;;;27.30;47.50;;;;;;5074227;28;20036;-74
2022/05/28 06:44:17;;;;;;;5.22;1.80;;;27.40;47.20;;;;;;5074510;28;20025;-75
2022/05/28 06:46:43;;;;;;;3.63;1.80;;;27.40;46.60;;;;;;5074553;28;20361;-78
2022/05/28 06:49:08;;;;;;;2.83;1.58;;;27.20;45.50;;;;;;5074041;28;20561;-72
2022/05/28 06:51:34;;;;;;;4.63;2.03;;;26.80;46.30;;;;;;5074390;28;20414;-79
2022/05/28 06:54:00;;;;;;;4.00;1.80;;;26.20;45.80;;;;;;5074524;28;20051;-74
2022/05/28 06:56:25;;;;;;;4.10;1.80;;;26.00;46.90;;;;;;5073569;28;20433;-76
2022/05/28 06:58:51;;;;;;;5.22;2.08;;;26.00;46.60;;;;;;5056251;28;20028;-76
2022/05/28 07:01:17;;;;;;;3.78;1.92;;;26.30;46.90;;;;;;5074150;28;20490;-76
2022/05/28 07:03:43;;;;;;;3.45;1.70;;;26.20;47.60;;;;;;5073586;28;20117;-76
2022/05/28 07:06:11;;;;;;;4.38;1.75;;;26.00;47.20;;;;;;5055976;28;20115;-79
2022/05/28 07:08:36;;;;;;;5.30;1.90;;;25.70;48.40;;;;;;4722852;28;10000373;-74
2022/05/28 07:11:06;;;;;;;5.15;2.00;;;25.50;49.00;;;;;;5092049;28;20386;-75
2022/05/28 07:13:34;;;;;;;4.50;1.92;;;25.70;47.80;;;;;;5094179;28;20028;-75
2022/05/28 07:16:00;;;;;;;3.53;1.70;;;26.10;48.90;;;;;;5075559;28;20232;-78
2022/05/28 07:18:26;;;;;;;3.90;2.00;;;26.20;47.30;;;;;;5093848;28;20115;-74
2022/05/28 07:20:51;;;;;;;2.85;1.70;;;26.20;47.70;;;;;;5075440;28;20182;-75
2022/05/28 07:23:19;;;;;;;7.75;2.20;;;26.30;47.80;;;;;;5093941;28;20124;-77
2022/05/28 07:25:46;;;;;;;5.80;1.70;;;26.20;46.50;;;;;;5093460;28;20103;-76
2022/05/28 07:28:24;;;;;;;3.88;1.80;;;25.70;46.90;;;;;;5075111;28;20031;-76
2022/05/28 07:30:56;;;;;;;4.35;1.95;;;25.80;47.80;;;;;;5093671;28;20504;-75
2022/05/28 07:33:24;;;;;;;4.13;1.67;;;26.00;48.00;;;;;;5093762;28;20031;-85
2022/05/28 07:35:51;;;;;;;5.43;2.38;;;26.10;46.20;;;;;;5094017;28;20080;-78
2022/05/28 07:38:17;;;;;;;4.60;1.95;;;26.30;47.30;;;;;;5092933;28;20409;-75
2022/05/28 07:40:42;;;;;;;7.15;1.90;;;26.50;46.50;;;;;;5074077;28;20051;-81
2022/05/28 07:43:08;;;;;;;6.43;1.75;;;26.70;46.00;;;;;;5092340;28;20386;-76
2022/05/28 07:45:39;;;;;;;4.70;1.80;;;26.60;44.20;;;;;;5093217;28;20020;-84
2022/05/28 07:48:05;;;;;;;9.57;1.60;;;26.40;43.40;;;;;;5092900;28;20020;-75
2022/05/28 07:50:30;;;;;;;4.07;1.88;;;26.30;42.20;;;;;;5074537;28;20035;-77
2022/05/28 07:52:57;;;;;;;4.30;1.83;;;26.30;44.90;;;;;;5094699;28;20028;-77
2022/05/28 07:55:29;;;;;;;5.80;2.08;;;26.40;44.40;;;;;;5093572;28;20058;-79
2022/05/28 07:57:55;;;;;;;7.60;1.95;;;25.70;44.00;;;;;;5093561;28;20162;-81
2022/05/28 08:00:21;;;;;;;6.13;1.98;;;25.60;44.10;;;;;;5076871;28;20020;-80
2022/05/28 08:02:47;;;;;;;7.10;2.00;;;25.50;43.70;;;;;;5093194;28;20031;-81
2022/05/28 08:05:13;;;;;;;5.68;1.95;;;25.40;45.00;;;;;;5093515;28;20024;-79
2022/05/28 08:07:38;;;;;;;5.15;2.00;;;25.40;44.00;;;;;;5075707;28;20020;-83
2022/05/28 08:10:04;;;;;;;4.28;1.70;;;25.20;42.20;;;;;;5075338;28;20031;-81
2022/05/28 08:12:30;;;;;;;6.65;2.10;;;24.90;43.30;;;;;;5073960;28;20032;-82
2022/05/28 08:14:56;;;;;;;5.55;2.10;;;25.10;43.60;;;;;;5074604;28;20043;-86
2022/05/28 08:17:21;;;;;;;6.80;1.98;;;25.40;42.40;;;;;;5075076;28;20035;-76
2022/05/28 08:19:47;;;;;;;4.32;1.70;;;25.50;42.90;;;;;;5095100;28;20032;-75
2022/05/28 08:25:00;;;;;;;5.93;1.77;;;26.30;42.80;;;;;;5093946;28;20046;-83
2022/05/28 08:27:25;;;;;;;6.28;1.83;;;26.00;42.10;;;;;;5093609;28;20050;-79
2022/05/28 08:29:51;;;;;;;7.38;1.70;;;25.70;42.00;;;;;;5075022;28;20032;-83
2022/05/28 08:32:18;;;;;;;5.82;2.20;;;25.50;43.10;;;;;;5075122;28;20028;-80
2022/05/28 08:34:44;;;;;;;6.03;2.10;;;25.20;41.90;;;;;;5093135;28;20481;-79
2022/05/28 08:37:11;;;;;;;6.68;1.80;;;25.30;42.50;;;;;;5093108;28;20386;-76
2022/05/28 08:39:37;;;;;;;5.55;1.80;;;25.50;43.00;;;;;;5092964;28;20495;-77
2022/05/28 08:42:04;;;;;;;4.88;2.03;;;25.70;42.40;;;;;;5074996;28;20111;-80
2022/05/28 08:44:39;;;;;;;7.05;1.90;;;25.90;42.70;;;;;;5092888;28;20421;-76
2022/05/28 08:47:24;;;;;;;5.25;1.98;;;26.30;43.50;;;;;;5093234;28;20052;-84
2022/05/28 08:49:51;;;;;;;5.32;2.00;;;26.30;41.50;;;;;;5074900;28;20032;-82
2022/05/28 08:52:25;;;;;;;5.25;1.90;;;25.80;42.80;;;;;;5075450;28;20100;-80
2022/05/28 08:54:58;;;;;;;5.47;2.22;;;25.60;41.90;;;;;;5075146;28;20036;-77
2022/05/28 08:57:48;;;;;;;5.47;1.90;;;25.60;42.20;;;;;;5074763;28;20020;-81
2022/05/28 09:00:38;;;;;;;5.13;1.83;;;25.80;42.30;;;;;;5096537;28;20024;-84
2022/05/28 09:03:25;;;;;;;;;;;26.10;42.60;;;;;;4995533;28;20038;-91
2022/05/28 09:07:14;;;;;;;5.00;1.90;;;25.40;41.40;;;;;;5076839;27;1593899;-85
2022/05/28 09:09:49;;;;;;;6.15;1.95;;;25.20;42.70;;;;;;5092983;28;20077;-76
2022/05/28 09:12:29;;;;;;;6.30;1.80;;;25.30;43.00;;;;;;5111171;28;20016;-87
2022/05/28 09:14:54;;;;;;;5.50;1.98;;;25.80;43.50;;;;;;5112269;28;20379;-78
2022/05/28 09:17:56;;;;;;;8.13;1.80;;;25.90;42.00;;;;;;5110339;28;20477;-76
2022/05/28 09:20:32;;;;;;;6.00;2.05;;;26.20;43.30;;;;;;4992129;28;20117;-78
2022/05/28 09:22:57;;;;;;;4.60;1.92;;;26.00;42.00;;;;;;5008568;28;20034;-80
2022/05/28 09:25:26;;;;;;;4.28;1.83;;;25.70;42.70;;;;;;5008199;28;20038;-82
2022/05/28 09:28:09;;;;;;;7.43;1.88;;;26.00;43.40;;;;;;5007973;28;20049;-85
2022/05/28 09:31:02;;;;;;;8.02;2.30;;;26.40;42.80;;;;;;4991825;28;20545;-78
2022/05/28 09:33:54;;;;;;;6.68;2.00;;;25.80;42.40;;;;;;5008445;28;20063;-86
2022/05/28 09:37:00;;;;;;;4.90;2.08;;;25.30;43.60;;;;;;5008197;28;20475;-82
2022/05/28 09:39:53;;;;;;;9.60;2.35;;;24.80;44.00;;;;;;4933555;29;20034;-75
2022/05/28 09:42:46;;;;;;;4.15;1.98;;;25.00;44.40;;;;;;4931664;29;20035;-78
2022/05/28 09:45:33;;;;;;;5.90;1.80;;;25.60;43.80;;;;;;4950057;29;20043;-83
2022/05/28 09:48:00;;;;;;;5.20;1.88;;;25.60;42.50;;;;;;4933263;29;20188;-77
2022/05/28 09:50:29;;;;;;;4.90;1.98;;;26.00;42.40;;;;;;4950182;29;20036;-85
2022/05/28 09:56:06;;;;;;;9.32;1.80;;;25.50;41.90;;;;;;5047603;28;20040;-79
2022/05/28 09:58:37;;;;;;;7.10;2.45;;;25.80;43.10;;;;;;5047121;28;20435;-76
2022/05/28 10:01:25;;;;;;;7.60;2.00;;;26.20;42.20;;;;;;5030762;28;20415;-75
2022/05/28 10:07:03;;;;;;;4.43;1.73;;;25.80;41.00;;;;;;5047170;28;20112;-79
2022/05/28 10:09:32;;;;;;;6.65;1.90;;;25.60;40.70;;;;;;5047135;28;20535;-80
2022/05/28 10:12:00;;;;;;;5.25;2.00;;;25.50;41.50;;;;;;5030409;28;20498;-84
2022/05/28 10:14:28;;;;;;;7.78;2.20;;;25.10;42.20;;;;;;5030787;28;20376;-76
2022/05/28 10:16:57;;;;;;;5.43;1.92;;;25.00;42.00;;;;;;5076615;28;20064;-81
2022/05/28 10:19:39;;;;;;;6.85;2.08;;;25.50;43.00;;;;;;5057470;28;20025;-76
2022/05/28 10:22:11;;;;;;;5.38;2.08;;;25.90;43.00;;;;;;5075813;28;20043;-85
2022/05/28 10:24:46;;;;;;;6.22;2.17;;;26.30;42.10;;;;;;5057887;28;20039;-81
2022/05/28 10:27:44;;;;;;;8.75;2.20;;;26.30;41.80;;;;;;5075835;28;20555;-82
2022/05/28 10:30:23;;;;;;;7.05;2.20;;;26.40;41.60;;;;;;5075179;28;20074;-77
2022/05/28 10:32:49;;;;;;;7.65;2.00;;;26.40;41.70;;;;;;5057818;28;20028;-79
2022/05/28 10:35:21;;;;;;;7.35;2.00;;;26.20;42.20;;;;;;5075398;28;20074;-77
2022/05/28 10:37:47;;;;;;;4.80;1.80;;;25.90;41.90;;;;;;5057507;28;20421;-78
2022/05/28 10:40:27;;;;;;;4.47;2.00;;;26.20;42.00;;;;;;5075534;28;20468;-82
2022/05/28 10:42:58;;;;;;;4.22;1.73;;;26.40;42.60;;;;;;5075568;28;20050;-82
2022/05/28 10:45:35;;;;;;;7.55;2.08;;;26.30;40.60;;;;;;5057282;28;20119;-80
2022/05/28 10:48:11;;;;;;;6.70;2.03;;;26.60;40.60;;;;;;5074839;28;20095;-85
2022/05/28 10:50:37;;;;;;;4.45;1.90;;;26.90;41.20;;;;;;5054918;28;20108;-79
2022/05/28 10:53:17;;;;;;;6.78;1.90;;;26.60;40.10;;;;;;5057289;28;20064;-76
2022/05/28 10:55:54;;;;;;;4.20;1.70;;;26.60;39.80;;;;;;5075081;28;20033;-84
2022/05/28 10:58:32;;;;;;;6.05;1.95;;;26.50;40.70;;;;;;5074972;28;20406;-77
2022/05/28 11:01:06;;;;;;;7.82;2.00;;;26.40;40.30;;;;;;5052653;28;20027;-84
2022/05/28 11:03:49;;;;;;;5.35;1.80;;;26.30;38.00;;;;;;5057031;28;20025;-82
2022/05/28 11:06:27;;;;;;;5.85;1.77;;;25.70;39.30;;;;;;5057233;28;20049;-79
2022/05/28 11:08:58;;;;;;;6.97;1.85;;;25.80;38.90;;;;;;5074899;28;20016;-82
2022/05/28 11:11:51;;;;;;;4.30;1.90;;;25.80;39.70;;;;;;5075075;28;20028;-82
2022/05/28 11:14:47;;;;;;;5.80;1.90;;;25.70;39.60;;;;;;5074689;28;20025;-81
2022/05/28 11:17:27;;;;;;;3.30;1.42;;;25.40;39.20;;;;;;5074883;28;20383;-84
2022/05/28 11:20:20;;;;;;;4.95;1.90;;;25.10;39.50;;;;;;5074520;28;20099;-79
2022/05/28 11:23:08;;;;;;;5.00;1.75;;;25.30;39.10;;;;;;5074901;28;20035;-78
2022/05/28 11:26:01;;;;;;;5.38;1.90;;;25.30;38.90;;;;;;5056580;28;20430;-78
2022/05/28 11:29:28;;;;;;;5.60;1.88;;;25.30;39.80;;;;;;5063373;28;20380;-79
2022/05/28 11:32:01;;;;;;;4.18;1.65;;;25.40;39.60;;;;;;4953034;28;20054;-79
2022/05/28 11:34:40;;;;;;;3.70;1.70;;;26.00;39.80;;;;;;4973840;28;20113;-80
2022/05/28 11:37:13;;;;;;;9.93;2.00;;;26.00;40.70;;;;;;4957799;28;20026;-80
2022/05/28 11:39:59;;;;;;;5.30;1.60;;;25.90;39.70;;;;;;4973417;28;20110;-81
2022/05/28 11:42:31;;;;;;;5.22;1.77;;;26.30;39.40;;;;;;4973540;28;20038;-82
2022/05/28 11:45:01;;;;;;;5.53;1.63;;;26.50;39.50;;;;;;4957290;28;20125;-78
2022/05/28 11:47:48;;;;;;;5.50;1.80;;;26.40;38.10;;;;;;4973595;28;20121;-78
2022/05/28 11:53:31;;;;;;;6.63;1.67;;;26.60;39.20;;;;;;4973275;28;20089;-80
2022/05/28 11:56:04;;;;;;;3.85;1.48;;;26.90;38.80;;;;;;4973582;28;20027;-80
2022/05/28 11:58:36;;;;;;;4.13;1.70;;;27.10;37.30;;;;;;4973293;28;20521;-79
2022/05/28 12:01:11;;;;;;;7.85;1.67;;;27.20;38.70;;;;;;4973612;28;20039;-80
2022/05/28 12:03:38;;;;;;;5.85;1.70;;;27.30;38.10;;;;;;4973201;28;20037;-82
2022/05/28 12:06:03;;;;;;;4.55;1.60;;;27.70;37.70;;;;;;4984618;28;20059;-81
2022/05/28 12:08:35;;;;;;;5.18;1.92;;;27.60;38.10;;;;;;5073938;28;20028;-82
2022/05/28 12:11:04;;;;;;;4.63;1.50;;;27.40;36.80;;;;;;5055311;28;20016;-83
2022/05/28 12:13:47;;;;;;;4.97;1.70;;;27.40;37.80;;;;;;5073660;28;20028;-80
2022/05/28 12:16:31;;;;;;;6.53;1.50;;;27.10;35.40;;;;;;5073661;28;20075;-78
2022/05/28 12:19:05;;;;;;;6.82;1.48;;;27.20;36.50;;;;;;5073673;28;20537;-78
2022/05/28 12:21:37;;;;;;;5.18;1.20;;;27.00;36.00;;;;;;5073630;28;20028;-84
2022/05/28 12:24:10;;;;;;;3.85;1.40;;;27.00;36.70;;;;;;5055864;28;20032;-77
2022/05/28 12:26:48;;;;;;;5.78;1.60;;;27.00;38.20;;;;;;5055497;28;20040;-81
2022/05/28 12:29:48;;;;;;;3.97;1.70;;;27.10;38.20;;;;;;5055579;28;20024;-83
2022/05/28 12:32:19;;;;;;;3.83;1.70;;;27.10;38.20;;;;;;5055423;28;20029;-81
2022/05/28 12:35:02;;;;;;;3.38;1.55;;;26.90;37.50;;;;;;5055890;28;20099;-81
2022/05/28 12:37:45;;;;;;;6.82;1.75;;;27.00;38.60;;;;;;5055407;28;20025;-91
2022/05/28 12:40:29;;;;;;;4.57;1.50;;;27.00;38.00;;;;;;5073315;28;20103;-81
2022/05/28 12:43:19;;;;;;;5.50;1.60;;;26.90;37.40;;;;;;5055584;28;20031;-84
2022/05/28 12:45:48;;;;;;;8.35;1.85;;;26.60;36.70;;;;;;5037888;28;20037;-79
2022/05/28 12:48:19;;;;;;;4.05;1.67;;;27.10;38.30;;;;;;5055432;28;20025;-82
2022/05/28 12:51:03;;;;;;;5.10;1.70;;;26.80;38.10;;;;;;5073316;28;20016;-84
2022/05/28 12:53:34;;;;;;;4.65;1.42;;;26.60;38.60;;;;;;5073181;28;20033;-82
2022/05/28 12:56:07;;;;;;;4.47;1.50;;;26.20;38.60;;;;;;5072981;28;20032;-80
2022/05/28 12:58:36;;;;;;;5.80;1.60;;;26.00;37.30;;;;;;5073215;28;20036;-80
2022/05/28 13:01:05;;;;;;;5.78;1.80;;;25.70;38.20;;;;;;5055539;28;20114;-79
2022/05/28 13:03:41;;;;;;;4.43;1.60;;;25.70;38.40;;;;;;5055717;28;20028;-86
2022/05/28 13:06:33;;;;;;;3.05;1.50;;;26.10;39.10;;;;;;5054932;28;20487;-86
2022/05/28 13:09:07;;;;;;;7.53;1.70;;;26.20;38.70;;;;;;5041793;28;20068;-79
2022/05/28 13:11:49;;;;;;;3.85;1.50;;;25.50;38.20;;;;;;5073172;28;20029;-82
2022/05/28 13:14:33;;;;;;;3.75;1.52;;;25.50;39.50;;;;;;5054748;28;20016;-89
2022/05/28 13:17:36;;;;;;;4.13;1.52;;;25.70;38.00;;;;;;5073005;28;20024;-82
2022/05/28 13:20:07;;;;;;;4.85;1.60;;;25.70;38.90;;;;;;4972320;28;20041;-78
2022/05/28 13:22:54;;;;;;;3.83;1.52;;;26.00;38.20;;;;;;4956162;28;20145;-78